createdAt,value
2023-04-21T00:00:20.626Z,5.01
2023-04-21T00:02:51.914Z,5.05
2023-04-21T00:05:26.005Z,4.98
2023-04-21T00:07:59.265Z,5.16
2023-04-21T00:10:30.256Z,5.04
2023-04-21T00:12:59.772Z,5.15
2023-04-21T00:15:27.951Z,5.18
2023-04-21T00:17:56.180Z,5.17
2023-04-21T00:20:26.760Z,5.18
2023-04-21T00:22:54.951Z,5.22
2023-04-21T00:25:23.742Z,5.12
2023-04-21T00:27:51.907Z,5.05
2023-04-21T00:30:21.536Z,5.10
2023-04-21T00:33:00.374Z,5.10
2023-04-21T00:35:30.868Z,5.15
2023-04-21T00:38:02.123Z,5.16
2023-04-21T00:40:32.536Z,5.13
2023-04-21T00:43:09.329Z,5.06
2023-04-21T00:45:42.216Z,5.23
2023-04-21T00:48:15.268Z,5.28
2023-04-21T00:50:44.353Z,5.03
2023-04-21T00:53:13.570Z,4.97
2023-04-21T00:55:44.544Z,5.12
2023-04-21T00:58:15.631Z,5.16
2023-04-21T01:00:48.894Z,5.05
2023-04-21T01:03:21.195Z,5.25
2023-04-21T01:05:52.964Z,5.24
2023-04-21T01:08:21.068Z,5.24
2023-04-21T01:10:50.629Z,5.24
2023-04-21T01:13:22.020Z,5.25
2023-04-21T01:15:53.351Z,5.29
2023-04-21T01:18:22.133Z,5.21
2023-04-21T01:20:50.276Z,5.21
2023-04-21T01:23:21.193Z,5.17
2023-04-21T01:25:50.525Z,5.17
2023-04-21T01:28:23.758Z,5.05
2023-04-21T01:30:51.990Z,5.13
2023-04-21T01:33:23.655Z,5.11
2023-04-21T01:35:55.346Z,5.00
2023-04-21T01:38:27.396Z,4.99
2023-04-21T01:40:58.378Z,5.07
2023-04-21T01:43:29.944Z,5.09
2023-04-21T01:46:00.280Z,5.12
2023-04-21T01:48:31.533Z,5.12
2023-04-21T01:51:00.572Z,5.05
2023-04-21T01:53:31.343Z,4.96
2023-04-21T01:55:59.417Z,4.93
2023-04-21T01:58:27.558Z,4.89
2023-04-21T02:00:58.785Z,4.62
2023-04-21T02:03:28.033Z,4.60
2023-04-21T02:05:57.027Z,4.64
2023-04-21T02:08:28.318Z,4.58
2023-04-21T02:10:58.012Z,4.64
2023-04-21T02:13:28.306Z,4.63
2023-04-21T02:16:06.148Z,4.52
2023-04-21T02:18:41.411Z,4.71
2023-04-21T02:21:11.466Z,4.64
2023-04-21T02:23:42.023Z,4.63
2023-04-21T02:26:18.198Z,4.65
2023-04-21T02:28:49.636Z,4.60
2023-04-21T02:31:20.539Z,4.72
2023-04-21T02:33:51.945Z,4.65
2023-04-21T02:36:24.257Z,4.82
2023-04-21T02:38:52.498Z,4.54
2023-04-21T02:41:26.535Z,4.79
2023-04-21T02:43:55.036Z,4.94
2023-04-21T02:46:27.047Z,4.92
2023-04-21T02:48:56.446Z,4.90
2023-04-21T02:51:24.861Z,4.97
2023-04-21T02:53:52.989Z,4.97
2023-04-21T02:56:22.615Z,5.03
2023-04-21T02:58:50.723Z,5.03
2023-04-21T03:01:19.027Z,4.89
2023-04-21T03:03:55.516Z,4.98
2023-04-21T03:06:28.882Z,4.98
2023-04-21T03:08:59.537Z,4.98
2023-04-21T03:11:32.397Z,4.91
2023-04-21T03:14:02.417Z,4.89
2023-04-21T03:16:30.648Z,4.91
2023-04-21T03:19:03.319Z,4.84
2023-04-21T03:21:31.617Z,4.79
2023-04-21T03:24:06.640Z,4.71
2023-04-21T03:26:36.089Z,4.71
2023-04-21T03:29:14.002Z,4.42
2023-04-21T03:31:44.322Z,4.59
2023-04-21T03:34:12.471Z,4.33
2023-04-21T03:36:44.019Z,4.49
2023-04-21T03:39:20.441Z,4.52
2023-04-21T03:41:51.835Z,4.59
2023-04-21T03:44:19.872Z,4.58
2023-04-21T03:46:47.980Z,4.62
2023-04-21T03:49:16.111Z,4.63
2023-04-21T03:51:45.840Z,4.66
2023-04-21T03:54:14.160Z,4.67
2023-04-21T03:56:42.309Z,4.70
2023-04-21T03:59:15.704Z,4.73
2023-04-21T04:01:46.246Z,4.79
2023-04-21T04:04:17.595Z,4.86
2023-04-21T04:06:48.351Z,4.90
2023-04-21T04:09:16.434Z,4.96
2023-04-21T04:11:44.585Z,4.92
2023-04-21T04:14:15.272Z,4.87
2023-04-21T04:16:46.367Z,4.92
2023-04-21T04:19:17.869Z,4.89
2023-04-21T04:21:49.270Z,4.91
2023-04-21T04:24:19.460Z,4.86
2023-04-21T04:26:51.784Z,4.88
2023-04-21T04:29:22.133Z,5.07
2023-04-21T04:31:51.213Z,5.16
2023-04-21T04:34:20.905Z,5.11
2023-04-21T04:36:51.784Z,5.16
2023-04-21T04:39:20.060Z,5.17
2023-04-21T04:41:48.736Z,5.05
2023-04-21T04:44:21.996Z,5.28
2023-04-21T04:46:54.842Z,5.28
2023-04-21T04:49:24.143Z,5.22
2023-04-21T04:51:52.508Z,5.38
2023-04-21T04:54:20.845Z,5.39
2023-04-21T04:56:49.384Z,5.42
2023-04-21T04:59:17.451Z,5.37
2023-04-21T05:01:55.188Z,5.32
2023-04-21T05:04:23.897Z,5.25
2023-04-21T05:06:57.066Z,5.33
2023-04-21T05:09:29.467Z,5.41
2023-04-21T05:12:00.282Z,5.42
2023-04-21T05:14:28.768Z,5.14
2023-04-21T05:16:59.649Z,5.29
2023-04-21T05:19:29.753Z,5.42
2023-04-21T05:22:01.671Z,5.39
2023-04-21T05:24:29.763Z,5.41
2023-04-21T05:27:03.004Z,5.41
2023-04-21T05:29:31.750Z,5.37
2023-04-21T05:32:02.844Z,5.44
2023-04-21T05:34:35.219Z,5.49
2023-04-21T05:37:03.468Z,5.52
2023-04-21T05:39:34.367Z,5.42
2023-04-21T05:42:03.140Z,5.65
2023-04-21T05:44:34.199Z,5.69
2023-04-21T05:47:05.144Z,5.60
2023-04-21T05:49:33.398Z,5.97
2023-04-21T05:52:01.594Z,5.97
2023-04-21T05:54:30.008Z,5.91
2023-04-21T05:56:58.096Z,6.15
2023-04-21T05:59:29.219Z,5.92
2023-04-21T06:01:57.422Z,6.38
2023-04-21T06:04:27.362Z,6.30
2023-04-21T06:06:58.153Z,6.37
2023-04-21T06:09:26.282Z,6.46
2023-04-21T06:11:57.699Z,6.51
2023-04-21T06:14:25.851Z,6.62
2023-04-21T06:16:57.081Z,6.45
2023-04-21T06:19:27.977Z,6.66
2023-04-21T06:21:57.687Z,6.63
2023-04-21T06:24:26.137Z,6.60
2023-04-21T06:26:54.519Z,6.77
2023-04-21T06:29:25.720Z,6.61
2023-04-21T06:31:56.891Z,6.91
2023-04-21T06:34:27.782Z,6.84
2023-04-21T06:37:00.671Z,7.29
2023-04-21T06:39:29.072Z,7.62
2023-04-21T06:41:58.173Z,7.39
2023-04-21T06:44:32.847Z,7.47
2023-04-21T06:47:01.057Z,7.68
2023-04-21T06:49:34.163Z,7.94
2023-04-21T06:52:02.357Z,8.21
2023-04-21T06:54:39.655Z,8.45
2023-04-21T06:57:07.769Z,8.41
2023-04-21T06:59:36.083Z,8.60
2023-04-21T07:02:04.291Z,8.84
2023-04-21T07:04:37.004Z,8.84
2023-04-21T07:07:06.979Z,9.19
2023-04-21T07:09:35.090Z,9.33
2023-04-21T07:12:03.179Z,9.03
2023-04-21T07:14:31.248Z,8.99
2023-04-21T07:17:01.737Z,9.09
2023-04-21T07:19:30.068Z,9.34
2023-04-21T07:22:01.083Z,9.55
2023-04-21T07:24:29.394Z,9.57
2023-04-21T07:26:57.462Z,9.64
2023-04-21T07:29:25.683Z,9.98
2023-04-21T07:31:54.564Z,9.97
2023-04-21T07:34:22.802Z,10.00
2023-04-21T07:36:56.891Z,10.00
2023-04-21T07:39:26.447Z,10.04
2023-04-21T07:41:55.836Z,10.11
2023-04-21T07:44:24.036Z,10.18
2023-04-21T07:46:52.108Z,10.24
2023-04-21T07:49:20.510Z,10.26
2023-04-21T07:51:51.936Z,10.38
2023-04-21T07:54:20.032Z,10.49
2023-04-21T07:56:49.530Z,10.65
2023-04-21T07:59:17.877Z,10.88
2023-04-21T08:01:51.674Z,11.16
2023-04-21T08:04:20.239Z,11.24
2023-04-21T08:06:51.912Z,10.95
2023-04-21T08:09:20.523Z,11.08
2023-04-21T08:11:52.837Z,11.36
2023-04-21T08:14:22.355Z,11.90
2023-04-21T08:16:50.945Z,12.42
2023-04-21T08:19:20.625Z,12.72
2023-04-21T08:21:53.946Z,12.81
2023-04-21T08:24:22.376Z,12.96
2023-04-21T08:26:52.311Z,12.72
2023-04-21T08:29:20.381Z,12.88
2023-04-21T08:31:48.572Z,12.77
2023-04-21T08:34:16.890Z,12.79
2023-04-21T08:36:46.963Z,13.05
2023-04-21T08:39:16.267Z,13.01
2023-04-21T08:41:45.401Z,13.00
2023-04-21T08:44:15.898Z,13.29
2023-04-21T08:46:46.153Z,13.36
2023-04-21T08:49:18.372Z,13.65
2023-04-21T08:51:47.438Z,13.97
2023-04-21T08:54:15.463Z,14.15
2023-04-21T08:56:43.600Z,14.23
2023-04-21T08:59:11.965Z,14.34
2023-04-21T09:02:13.745Z,14.46
2023-04-21T09:04:42.368Z,14.38
2023-04-21T09:07:11.334Z,14.43
2023-04-21T09:09:54.051Z,14.64
2023-04-21T09:12:22.511Z,14.72
2023-04-21T09:14:51.433Z,14.87
2023-04-21T09:17:23.215Z,15.12
2023-04-21T09:19:51.462Z,15.35
2023-04-21T09:22:20.544Z,15.19
2023-04-21T09:24:57.890Z,15.59
2023-04-21T09:27:26.011Z,15.78
2023-04-21T09:29:54.113Z,15.77
2023-04-21T09:32:23.723Z,15.91
2023-04-21T09:34:51.868Z,16.08
2023-04-21T09:37:24.282Z,16.02
2023-04-21T09:40:03.382Z,16.12
2023-04-21T09:42:37.804Z,16.38
2023-04-21T09:45:32.484Z,16.59
2023-04-21T09:48:03.626Z,16.52
2023-04-21T09:53:07.214Z,16.99
2023-04-21T09:55:36.281Z,17.26
2023-04-21T09:58:06.892Z,17.41
2023-04-21T10:00:39.912Z,17.40
2023-04-21T10:03:12.123Z,17.26
2023-04-21T10:05:42.717Z,17.58
2023-04-21T10:08:12.714Z,17.61
2023-04-21T10:10:41.450Z,17.99
2023-04-21T10:13:16.684Z,18.17
2023-04-21T10:15:45.183Z,18.48
2023-04-21T10:18:25.221Z,18.40
2023-04-21T10:20:55.400Z,18.24
2023-04-21T10:23:32.518Z,17.64
2023-04-21T10:26:13.413Z,17.26
2023-04-21T10:28:53.107Z,16.84
2023-04-21T10:31:31.918Z,16.30
2023-04-21T10:34:30.183Z,16.20
2023-04-21T10:37:20.194Z,16.29
2023-04-21T10:39:55.805Z,16.77
2023-04-21T10:42:37.359Z,16.91
2023-04-21T10:45:13.192Z,17.26
2023-04-21T10:47:49.445Z,17.59
2023-04-21T10:50:23.836Z,17.83
2023-04-21T10:52:59.315Z,17.83
2023-04-21T10:55:30.153Z,17.43
2023-04-21T10:57:59.266Z,17.16
2023-04-21T11:00:27.513Z,17.45
2023-04-21T11:02:58.033Z,17.67
2023-04-21T11:05:38.301Z,17.70
2023-04-21T11:08:12.825Z,17.75
2023-04-21T11:10:54.470Z,17.87
2023-04-21T11:13:24.519Z,17.88
2023-04-21T11:16:05.956Z,17.64
2023-04-21T11:18:44.893Z,17.73
2023-04-21T11:21:21.601Z,18.14
2023-04-21T11:23:52.272Z,18.16
2023-04-21T11:26:31.455Z,18.14
2023-04-21T11:29:03.092Z,18.06
2023-04-21T11:31:31.759Z,18.20
2023-04-21T11:34:00.685Z,18.23
2023-04-21T11:36:30.444Z,18.14
2023-04-21T11:38:58.612Z,18.05
2023-04-21T11:41:27.182Z,17.59
2023-04-21T11:43:55.599Z,17.60
2023-04-21T11:46:26.688Z,17.44
2023-04-21T11:49:02.490Z,17.40
2023-04-21T11:51:36.767Z,17.95
2023-04-21T11:54:07.970Z,18.21
2023-04-21T11:56:38.031Z,18.65
2023-04-21T11:59:09.376Z,18.34
2023-04-21T12:01:44.966Z,18.25
2023-04-21T12:04:17.137Z,18.04
2023-04-21T12:06:48.822Z,18.14
2023-04-21T12:09:22.158Z,18.32
2023-04-21T12:11:52.198Z,18.13
2023-04-21T12:14:23.015Z,18.04
2023-04-21T12:16:53.298Z,18.39
2023-04-21T12:19:26.518Z,18.42
2023-04-21T12:21:57.308Z,18.32
2023-04-21T12:24:26.006Z,18.19
2023-04-21T12:26:54.667Z,18.11
2023-04-21T12:29:23.020Z,17.63
2023-04-21T12:31:51.304Z,17.80
2023-04-21T12:34:19.586Z,17.88
2023-04-21T12:36:47.822Z,18.06
2023-04-21T12:39:20.464Z,18.50
2023-04-21T12:41:48.894Z,18.71
2023-04-21T12:44:17.013Z,18.73
2023-04-21T12:46:45.166Z,18.76
2023-04-21T12:49:14.297Z,18.69
2023-04-21T12:51:45.409Z,18.63
2023-04-21T12:54:13.798Z,18.43
2023-04-21T12:56:43.875Z,18.45
2023-04-21T12:59:12.688Z,18.50
2023-04-21T13:01:42.679Z,18.35
2023-04-21T13:04:11.227Z,18.33
2023-04-21T13:06:40.571Z,18.05
2023-04-21T13:09:08.876Z,18.12
2023-04-21T13:11:37.082Z,18.28
2023-04-21T13:14:06.747Z,18.45
2023-04-21T13:16:34.939Z,18.38
2023-04-21T13:19:04.149Z,18.28
2023-04-21T13:21:32.706Z,18.14
2023-04-21T13:24:02.532Z,18.22
2023-04-21T13:26:33.274Z,18.49
2023-04-21T13:29:02.588Z,18.65
2023-04-21T13:31:32.412Z,18.85
2023-04-21T13:34:02.214Z,18.84
2023-04-21T13:36:31.342Z,19.22
2023-04-21T13:39:01.636Z,19.49
2023-04-21T13:41:30.119Z,19.93
2023-04-21T13:43:58.208Z,19.92
2023-04-21T13:46:26.459Z,19.52
2023-04-21T13:48:56.638Z,18.90
2023-04-21T13:51:24.905Z,18.50
2023-04-21T13:53:52.998Z,18.21
2023-04-21T13:56:21.040Z,18.06
2023-04-21T13:58:50.065Z,18.21
2023-04-21T14:01:20.672Z,18.37
2023-04-21T14:03:49.884Z,18.85
2023-04-21T14:06:19.618Z,19.10
2023-04-21T14:08:47.767Z,18.99
2023-04-21T14:11:16.002Z,18.91
2023-04-21T14:13:55.996Z,18.84
2023-04-21T14:16:32.599Z,18.98
2023-04-21T14:19:00.836Z,18.76
2023-04-21T14:21:30.987Z,18.32
2023-04-21T14:23:59.314Z,17.87
2023-04-21T14:26:27.712Z,18.12
2023-04-21T14:28:56.428Z,18.04
2023-04-21T14:31:30.159Z,17.70
2023-04-21T14:33:58.234Z,17.86
2023-04-21T14:36:27.286Z,17.92
2023-04-21T14:38:57.016Z,18.22
2023-04-21T14:41:25.688Z,18.35
2023-04-21T14:43:56.516Z,18.34
2023-04-21T14:46:24.995Z,18.28
2023-04-21T14:48:53.315Z,18.54
2023-04-21T14:51:21.854Z,18.65
2023-04-21T14:53:50.026Z,18.70
2023-04-21T14:56:19.774Z,18.44
2023-04-21T14:58:47.938Z,18.71
2023-04-21T15:01:16.228Z,18.72
2023-04-21T15:03:44.673Z,18.82
2023-04-21T15:06:12.890Z,18.87
2023-04-21T15:08:41.147Z,18.97
2023-04-21T15:11:09.368Z,18.83
2023-04-21T15:13:39.201Z,18.76
2023-04-21T15:16:07.875Z,18.64
2023-04-21T15:18:36.053Z,18.50
2023-04-21T15:21:04.527Z,18.53
2023-04-21T15:23:33.783Z,18.48
2023-04-21T15:26:02.012Z,18.50
2023-04-21T15:28:30.148Z,18.34
2023-04-21T15:30:59.625Z,18.19
2023-04-21T15:33:27.807Z,18.14
2023-04-21T15:35:55.954Z,17.89
2023-04-21T15:38:24.090Z,17.56
2023-04-21T15:41:00.760Z,17.24
2023-04-21T15:43:30.374Z,17.19
2023-04-21T15:45:59.915Z,17.01
2023-04-21T15:48:28.098Z,16.60
2023-04-21T15:50:57.328Z,16.73
2023-04-21T15:53:25.762Z,16.50
2023-04-21T15:55:53.901Z,16.39
2023-04-21T15:58:22.408Z,16.22
2023-04-21T16:00:50.772Z,16.20
2023-04-21T16:03:21.412Z,16.16
2023-04-21T16:05:49.847Z,16.07
2023-04-21T16:08:18.084Z,15.95
2023-04-21T16:10:46.419Z,15.91
2023-04-21T16:13:14.612Z,15.85
2023-04-21T16:15:42.850Z,15.92
2023-04-21T16:18:11.481Z,16.15
2023-04-21T16:20:41.652Z,16.40
2023-04-21T16:23:10.424Z,16.47
2023-04-21T16:25:38.744Z,16.85
2023-04-21T16:28:09.182Z,17.07
2023-04-21T16:30:38.542Z,17.25
2023-04-21T16:33:06.689Z,17.43
2023-04-21T16:35:35.013Z,17.54
2023-04-21T16:38:04.800Z,17.56
2023-04-21T16:40:33.157Z,17.41
2023-04-21T16:43:01.307Z,17.26
2023-04-21T16:45:31.449Z,17.02
2023-04-21T16:47:59.742Z,17.00
2023-04-21T16:50:30.865Z,16.66
2023-04-21T16:52:58.979Z,16.56
2023-04-21T16:55:29.320Z,16.03
2023-04-21T16:57:57.424Z,15.61
2023-04-21T17:00:25.727Z,14.92
2023-04-21T17:02:54.080Z,14.41
2023-04-21T17:05:23.193Z,14.43
2023-04-21T17:07:51.834Z,14.32
2023-04-21T17:10:20.264Z,14.30
2023-04-21T17:12:49.727Z,14.25
2023-04-21T17:15:18.001Z,14.12
2023-04-21T17:17:47.193Z,13.87
2023-04-21T17:20:16.113Z,13.93
2023-04-21T17:22:44.428Z,13.54
2023-04-21T17:25:12.860Z,13.84
2023-04-21T17:27:41.602Z,13.62
2023-04-21T17:30:12.876Z,12.93
2023-04-21T17:32:41.573Z,12.45
2023-04-21T17:35:10.623Z,11.82
2023-04-21T17:37:38.800Z,10.83
2023-04-21T17:40:09.656Z,9.88
2023-04-21T17:42:37.758Z,8.82
2023-04-21T17:45:08.586Z,7.90
2023-04-21T17:47:38.182Z,7.57
2023-04-21T17:50:08.929Z,7.22
2023-04-21T17:52:37.217Z,6.70
2023-04-21T17:55:06.202Z,6.80
2023-04-21T17:57:34.461Z,6.90
2023-04-21T18:00:08.530Z,7.05
2023-04-21T18:02:38.111Z,7.27
2023-04-21T18:05:06.837Z,7.43
2023-04-21T18:07:35.091Z,7.49
2023-04-21T18:10:05.321Z,7.46
2023-04-21T18:12:33.494Z,7.63
2023-04-21T18:15:01.916Z,7.79
2023-04-21T18:17:31.275Z,7.87
2023-04-21T18:20:00.862Z,7.97
2023-04-21T18:22:28.960Z,7.93
2023-04-21T18:24:59.928Z,8.02
2023-04-21T18:27:31.112Z,8.10
2023-04-21T18:29:59.150Z,8.04
2023-04-21T18:32:27.403Z,8.08
2023-04-21T18:34:57.579Z,8.05
2023-04-21T18:37:26.996Z,8.03
2023-04-21T18:39:58.047Z,8.09
2023-04-21T18:42:27.198Z,7.80
2023-04-21T18:44:57.759Z,7.75
2023-04-21T18:47:26.685Z,7.88
2023-04-21T18:49:54.861Z,7.77
2023-04-21T18:52:22.919Z,7.63
2023-04-21T18:54:53.701Z,7.57
2023-04-21T18:57:22.034Z,7.28
2023-04-21T18:59:52.517Z,7.32
2023-04-21T19:02:20.726Z,7.35
2023-04-21T19:04:49.143Z,7.25
2023-04-21T19:07:17.265Z,7.26
2023-04-21T19:09:45.387Z,7.10
2023-04-21T19:12:16.096Z,6.93
2023-04-21T19:14:47.587Z,6.83
2023-04-21T19:17:19.199Z,6.81
2023-04-21T19:19:47.392Z,6.58
2023-04-21T19:22:15.823Z,6.59
2023-04-21T19:24:44.919Z,6.45
2023-04-21T19:27:14.712Z,6.45
2023-04-21T19:29:42.816Z,6.58
2023-04-21T19:32:15.941Z,6.60
2023-04-21T19:34:44.072Z,6.53
2023-04-21T19:37:12.157Z,6.60
2023-04-21T19:39:40.360Z,6.61
2023-04-21T19:42:11.976Z,6.61
2023-04-21T19:44:41.492Z,6.60
2023-04-21T19:47:09.741Z,6.66
2023-04-21T19:49:39.844Z,6.29
2023-04-21T19:52:08.123Z,6.38
2023-04-21T19:54:36.748Z,6.52
2023-04-21T19:57:05.382Z,6.24
2023-04-21T19:59:37.368Z,6.14
2023-04-21T20:02:07.321Z,6.41
2023-04-21T20:04:35.755Z,6.54
2023-04-21T20:07:03.944Z,6.52
2023-04-21T20:09:32.100Z,6.79
2023-04-21T20:12:00.147Z,6.71
2023-04-21T20:14:28.331Z,6.90
2023-04-21T20:16:56.584Z,6.85
2023-04-21T20:19:27.074Z,6.96
2023-04-21T20:21:55.352Z,6.98
2023-04-21T20:24:24.012Z,6.51
2023-04-21T20:26:52.601Z,6.13
2023-04-21T20:29:21.551Z,6.12
2023-04-21T20:31:49.688Z,6.14
2023-04-21T20:34:20.318Z,6.04
2023-04-21T20:36:49.796Z,5.82
2023-04-21T20:39:19.017Z,5.80
2023-04-21T20:41:50.998Z,5.88
2023-04-21T20:44:24.416Z,5.94
2023-04-21T20:46:52.614Z,5.82
2023-04-21T20:49:20.739Z,6.15
2023-04-21T20:51:57.921Z,6.23
2023-04-21T20:54:26.083Z,6.32
2023-04-21T20:56:55.047Z,6.43
2023-04-21T20:59:26.036Z,6.62
2023-04-21T21:01:54.166Z,6.58
2023-04-21T21:04:22.422Z,6.48
2023-04-21T21:06:52.052Z,6.49
2023-04-21T21:09:20.690Z,6.58
2023-04-21T21:11:48.948Z,6.69
2023-04-21T21:14:17.068Z,6.72
2023-04-21T21:16:45.298Z,6.48
2023-04-21T21:19:15.010Z,6.74
2023-04-21T21:21:43.187Z,6.68
2023-04-21T21:24:12.731Z,6.58
2023-04-21T21:26:42.651Z,6.56
2023-04-21T21:29:10.995Z,6.31
2023-04-21T21:31:44.511Z,6.27
2023-04-21T21:34:12.725Z,6.23
2023-04-21T21:36:43.078Z,6.10
2023-04-21T21:39:12.665Z,6.18
2023-04-21T21:41:40.780Z,6.40
2023-04-21T21:44:09.008Z,6.27
2023-04-21T21:46:37.283Z,6.41
2023-04-21T21:49:05.409Z,6.42
2023-04-21T21:51:33.755Z,6.36
2023-04-21T21:54:01.839Z,6.23
2023-04-21T21:56:31.381Z,6.09
2023-04-21T21:58:59.839Z,5.94
2023-04-21T22:01:28.183Z,5.81
2023-04-21T22:03:56.422Z,5.68
2023-04-21T22:06:26.784Z,5.58
2023-04-21T22:08:54.997Z,5.50
2023-04-21T22:11:23.137Z,5.29
2023-04-21T22:13:52.783Z,5.23
2023-04-21T22:16:20.873Z,5.07
2023-04-21T22:18:49.245Z,4.84
2023-04-21T22:21:17.595Z,4.97
2023-04-21T22:23:45.841Z,4.64
2023-04-21T22:26:16.063Z,4.82
2023-04-21T22:28:49.866Z,4.72
2023-04-21T22:31:19.364Z,4.68
2023-04-21T22:33:47.455Z,4.35
2023-04-21T22:36:15.733Z,4.50
2023-04-21T22:38:45.658Z,4.42
2023-04-21T22:41:13.833Z,4.63
2023-04-21T22:43:42.125Z,4.56
2023-04-21T22:46:10.277Z,4.60
2023-04-21T22:48:44.829Z,4.61
2023-04-21T22:51:14.349Z,4.53
2023-04-21T22:53:42.451Z,4.53
2023-04-21T22:56:10.590Z,4.42
2023-04-21T22:58:38.761Z,4.52
2023-04-21T23:01:09.292Z,4.42
2023-04-21T23:03:41.293Z,4.29
2023-04-21T23:06:11.770Z,4.36
2023-04-21T23:08:40.084Z,4.34
2023-04-21T23:11:08.248Z,4.23
2023-04-21T23:13:39.831Z,4.15
2023-04-21T23:16:08.190Z,4.19
2023-04-21T23:18:36.523Z,4.12
2023-04-21T23:21:06.086Z,3.92
2023-04-21T23:23:34.223Z,4.02
2023-04-21T23:26:02.437Z,3.64
2023-04-21T23:28:31.776Z,3.93
2023-04-21T23:30:59.911Z,3.80
2023-04-21T23:33:28.076Z,3.79
2023-04-21T23:35:56.326Z,3.74
2023-04-21T23:38:25.963Z,3.82
2023-04-21T23:40:55.855Z,3.81
2023-04-21T23:43:24.035Z,3.83
2023-04-21T23:45:52.497Z,3.84
2023-04-21T23:48:22.794Z,3.80
2023-04-21T23:50:51.047Z,3.76
2023-04-21T23:53:26.641Z,3.72
2023-04-21T23:55:57.548Z,3.70
2023-04-21T23:58:25.770Z,3.43
